createdAt,value
2018-03-11T00:00:54.192Z,82.81
2018-03-11T00:03:21.588Z,82.46
2018-03-11T00:05:49.396Z,82.51
2018-03-11T00:08:16.792Z,82.70
2018-03-11T00:10:44.196Z,81.91
2018-03-11T00:13:11.592Z,82.05
2018-03-11T00:15:38.997Z,82.32
2018-03-11T00:18:06.487Z,82.32
2018-03-11T00:20:33.858Z,82.62
2018-03-11T00:23:01.257Z,83.65
2018-03-11T00:25:28.669Z,84.07
2018-03-11T00:27:56.069Z,83.70
2018-03-11T00:30:23.490Z,83.52
2018-03-11T00:32:50.891Z,82.48
2018-03-11T00:35:18.303Z,82.08
2018-03-11T00:37:45.697Z,81.80
2018-03-11T00:40:13.114Z,81.79
2018-03-11T00:42:40.512Z,82.50
2018-03-11T00:45:07.935Z,84.18
2018-03-11T00:47:35.338Z,84.34
2018-03-11T00:50:02.748Z,84.29
2018-03-11T00:52:30.158Z,84.30
2018-03-11T00:54:57.565Z,84.57
2018-03-11T00:57:24.965Z,84.78
2018-03-11T00:59:52.377Z,84.71
2018-03-11T01:02:19.774Z,84.77
2018-03-11T01:04:47.187Z,84.82
2018-03-11T01:07:14.608Z,84.88
2018-03-11T01:09:42.017Z,85.80
2018-03-11T01:12:09.439Z,86.00
2018-03-11T01:14:36.843Z,85.99
2018-03-11T01:17:04.258Z,85.77
2018-03-11T01:19:31.661Z,85.61
2018-03-11T01:21:59.857Z,85.30
2018-03-11T01:24:27.275Z,85.70
2018-03-11T01:26:54.690Z,85.92
2018-03-11T01:29:22.162Z,86.40
2018-03-11T01:31:49.572Z,86.40
2018-03-11T01:34:17.029Z,86.51
2018-03-11T01:36:44.397Z,86.79
2018-03-11T01:39:11.816Z,87.35
2018-03-11T01:41:39.232Z,87.22
2018-03-11T01:44:06.633Z,87.65
2018-03-11T01:46:34.045Z,87.72
2018-03-11T01:49:01.445Z,88.03
2018-03-11T01:51:28.870Z,88.16
2018-03-11T01:53:56.264Z,88.10
2018-03-11T01:56:23.679Z,88.14
2018-03-11T01:58:51.089Z,88.15
2018-03-11T02:01:19.264Z,87.83
2018-03-11T02:03:46.687Z,88.10
2018-03-11T02:06:14.118Z,88.27
2018-03-11T02:08:41.521Z,88.86
2018-03-11T02:11:08.925Z,89.15
2018-03-11T02:13:36.344Z,89.16
2018-03-11T02:16:03.745Z,89.89
2018-03-11T02:18:31.350Z,90.02
2018-03-11T02:20:58.754Z,89.70
2018-03-11T02:23:26.165Z,89.70
2018-03-11T02:25:53.569Z,89.53
2018-03-11T02:28:20.973Z,89.37
2018-03-11T02:30:48.380Z,89.33
2018-03-11T02:33:15.789Z,89.63
2018-03-11T02:35:43.184Z,89.39
2018-03-11T02:38:10.604Z,89.03
2018-03-11T02:40:38.013Z,89.03
2018-03-11T02:43:05.426Z,88.90
2018-03-11T02:45:33.412Z,89.17
2018-03-11T02:48:00.822Z,89.48
2018-03-11T02:50:28.224Z,89.40
2018-03-11T02:52:56.889Z,89.22
2018-03-11T02:55:24.286Z,89.87
2018-03-11T02:57:51.697Z,90.15
2018-03-11T03:00:19.109Z,89.60
2018-03-11T03:02:46.520Z,89.26
2018-03-11T03:05:14.232Z,88.79
2018-03-11T03:07:41.659Z,88.20
2018-03-11T03:10:09.047Z,89.15
2018-03-11T03:12:36.465Z,90.32
2018-03-11T03:15:04.742Z,89.97
2018-03-11T03:17:32.154Z,89.56
2018-03-11T03:19:59.574Z,88.87
2018-03-11T03:22:26.981Z,88.33
2018-03-11T03:24:54.405Z,87.29
2018-03-11T03:27:21.810Z,87.26
2018-03-11T03:29:49.216Z,87.01
2018-03-11T03:32:16.623Z,87.95
2018-03-11T03:34:44.045Z,87.88
2018-03-11T03:37:11.446Z,87.87
2018-03-11T03:39:38.860Z,87.38
2018-03-11T03:42:06.260Z,87.22
2018-03-11T03:44:33.674Z,87.35
2018-03-11T03:47:01.074Z,87.25
2018-03-11T03:49:28.485Z,87.06
2018-03-11T03:51:55.881Z,86.64
2018-03-11T03:54:23.297Z,85.73
2018-03-11T03:56:50.697Z,84.58
2018-03-11T03:59:18.109Z,83.50
2018-03-11T04:01:45.507Z,82.79
2018-03-11T04:04:12.925Z,82.38
2018-03-11T04:06:40.331Z,82.27
2018-03-11T04:09:07.734Z,82.08
2018-03-11T04:11:35.132Z,81.86
2018-03-11T04:14:02.538Z,80.34
2018-03-11T04:16:29.944Z,80.42
2018-03-11T04:18:57.346Z,81.08
2018-03-11T04:21:24.753Z,81.54
2018-03-11T04:23:52.196Z,83.02
2018-03-11T04:26:19.597Z,83.49
2018-03-11T04:28:47.000Z,83.19
2018-03-11T04:31:14.399Z,83.08
2018-03-11T04:33:41.800Z,82.95
2018-03-11T04:36:09.208Z,82.78
2018-03-11T04:38:36.613Z,82.93
2018-03-11T04:41:04.026Z,83.52
2018-03-11T04:43:31.433Z,84.45
2018-03-11T04:45:58.854Z,86.41
2018-03-11T04:48:26.253Z,87.42
2018-03-11T04:50:53.664Z,86.73
2018-03-11T04:53:21.070Z,86.14
2018-03-11T04:55:48.490Z,86.26
2018-03-11T04:58:15.893Z,86.56
2018-03-11T05:00:43.312Z,88.07
2018-03-11T05:03:10.722Z,88.46
2018-03-11T05:05:38.133Z,88.05
2018-03-11T05:08:05.541Z,87.58
2018-03-11T05:10:32.952Z,87.51
2018-03-11T05:13:00.364Z,88.15
2018-03-11T05:15:27.782Z,88.79
2018-03-11T05:17:55.180Z,88.66
2018-03-11T05:20:22.596Z,87.80
2018-03-11T05:22:50.002Z,87.59
2018-03-11T05:25:17.423Z,87.71
2018-03-11T05:27:44.823Z,87.41
2018-03-11T05:30:12.236Z,86.95
2018-03-11T05:32:39.629Z,86.28
2018-03-11T05:35:07.051Z,86.13
2018-03-11T05:37:34.457Z,86.67
2018-03-11T05:40:01.858Z,87.82
2018-03-11T05:42:29.268Z,88.25
2018-03-11T05:44:56.673Z,88.68
2018-03-11T05:47:24.092Z,88.69
2018-03-11T05:49:51.480Z,89.08
2018-03-11T05:52:18.904Z,89.25
2018-03-11T05:54:46.305Z,89.05
2018-03-11T05:57:13.714Z,88.81
2018-03-11T05:59:42.155Z,88.48
2018-03-11T06:02:09.576Z,88.28
2018-03-11T06:04:36.976Z,87.93
2018-03-11T06:07:04.390Z,87.66
2018-03-11T06:09:31.790Z,88.20
2018-03-11T06:11:59.202Z,88.84
2018-03-11T06:14:26.614Z,88.97
2018-03-11T06:16:54.032Z,88.85
2018-03-11T06:19:21.438Z,88.73
2018-03-11T06:21:48.849Z,88.61
2018-03-11T06:24:16.263Z,88.22
2018-03-11T06:26:43.679Z,87.54
2018-03-11T06:29:11.080Z,86.19
2018-03-11T06:31:38.487Z,85.63
2018-03-11T06:34:05.901Z,85.36
2018-03-11T06:36:33.305Z,84.75
2018-03-11T06:39:00.770Z,83.97
2018-03-11T06:41:28.130Z,83.83
2018-03-11T06:43:55.530Z,83.97
2018-03-11T06:46:22.985Z,83.30
2018-03-11T06:48:50.489Z,83.03
2018-03-11T06:51:17.886Z,82.36
2018-03-11T06:53:45.298Z,81.62
2018-03-11T06:56:13.568Z,81.15
2018-03-11T06:58:40.990Z,80.98
2018-03-11T07:01:08.396Z,81.56
2018-03-11T07:03:35.817Z,80.85
2018-03-11T07:06:03.208Z,80.12
2018-03-11T07:08:30.621Z,81.35
2018-03-11T07:10:58.016Z,81.81
2018-03-11T07:13:25.424Z,80.15
2018-03-11T07:15:52.853Z,79.68
2018-03-11T07:18:20.268Z,79.08
2018-03-11T07:20:47.667Z,78.90
2018-03-11T07:23:15.093Z,78.92
2018-03-11T07:25:42.497Z,78.85
2018-03-11T07:28:09.913Z,78.51
2018-03-11T07:30:37.319Z,77.99
2018-03-11T07:33:04.730Z,76.89
2018-03-11T07:35:32.133Z,75.99
2018-03-11T07:37:59.546Z,76.75
2018-03-11T07:40:26.969Z,75.66
2018-03-11T07:42:54.352Z,74.96
2018-03-11T07:45:21.778Z,75.41
2018-03-11T07:50:51.685Z,75.44
2018-03-11T07:53:19.085Z,74.42
2018-03-11T07:55:46.489Z,73.91
2018-03-11T07:58:13.888Z,73.15
2018-03-11T08:00:41.308Z,72.57
2018-03-11T08:03:08.702Z,73.00
2018-03-11T08:05:36.113Z,71.07
2018-03-11T08:08:03.518Z,71.79
2018-03-11T08:10:30.980Z,71.03
2018-03-11T08:12:58.414Z,68.69
2018-03-11T08:15:25.828Z,68.69
2018-03-11T08:17:53.221Z,64.91
2018-03-11T08:20:20.639Z,66.24
2018-03-11T08:22:48.051Z,65.48
2018-03-11T08:25:15.993Z,65.77
2018-03-11T08:27:43.402Z,67.46
2018-03-11T08:30:10.801Z,66.79
2018-03-11T08:32:38.207Z,67.49
2018-03-11T08:35:05.609Z,69.59
2018-03-11T08:37:33.033Z,68.36
2018-03-11T08:40:00.440Z,67.63
2018-03-11T08:42:27.858Z,66.99
2018-03-11T08:44:55.269Z,67.85
2018-03-11T11:08:28.743Z,59.21
2018-03-11T11:10:56.344Z,60.04
2018-03-11T11:13:23.785Z,61.23
2018-03-11T11:15:51.246Z,62.99
2018-03-11T11:21:45.862Z,63.67
2018-03-11T11:24:13.303Z,62.64
2018-03-11T11:26:40.702Z,63.56
2018-03-11T11:29:08.130Z,62.73
2018-03-11T11:31:35.539Z,61.91
2018-03-11T11:34:02.946Z,61.33
2018-03-11T11:36:30.370Z,62.32
2018-03-11T11:38:57.786Z,62.06
2018-03-11T11:41:25.182Z,60.95
2018-03-11T11:43:52.596Z,59.43
2018-03-11T11:46:19.993Z,59.99
2018-03-11T11:48:47.462Z,58.76
2018-03-11T11:51:14.798Z,57.74
2018-03-11T11:53:42.207Z,58.56
2018-03-11T11:56:09.665Z,59.23
2018-03-11T11:58:37.022Z,57.54
2018-03-11T12:01:04.426Z,56.98
2018-03-11T12:03:31.837Z,56.53
2018-03-11T12:05:59.235Z,57.54
2018-03-11T12:08:26.641Z,57.32
2018-03-11T12:10:54.180Z,57.24
2018-03-11T12:13:21.577Z,56.46
2018-03-11T12:15:48.977Z,54.28
2018-03-11T12:18:16.403Z,54.94
2018-03-11T12:20:43.808Z,55.00
2018-03-11T12:23:11.220Z,54.02
2018-03-11T12:25:38.623Z,54.80
2018-03-11T12:28:06.034Z,55.20
2018-03-11T12:30:33.443Z,55.58
2018-03-11T12:33:00.842Z,55.73
2018-03-11T12:35:28.255Z,54.17
2018-03-11T12:37:55.657Z,55.17
2018-03-11T12:40:23.070Z,54.88
2018-03-11T12:42:50.490Z,54.97
2018-03-11T12:45:17.933Z,53.72
2018-03-11T12:47:45.307Z,54.62
2018-03-11T12:50:12.714Z,53.79
2018-03-11T12:52:40.113Z,53.22
2018-03-11T12:55:07.526Z,53.59
2018-03-11T12:57:34.925Z,55.08
2018-03-11T13:00:02.337Z,56.38
2018-03-11T13:02:29.741Z,53.56
2018-03-11T13:04:57.159Z,53.17
2018-03-11T13:07:24.565Z,51.96
2018-03-11T13:09:51.979Z,51.69
2018-03-11T13:12:19.382Z,52.27
2018-03-11T13:14:46.789Z,53.53
2018-03-11T13:17:14.205Z,53.25
2018-03-11T13:19:41.614Z,52.74
2018-03-11T13:22:09.016Z,50.96
2018-03-11T13:24:36.432Z,51.94
2018-03-11T13:27:03.831Z,52.14
2018-03-11T13:29:31.246Z,52.32
2018-03-11T13:35:00.964Z,53.34
2018-03-11T13:37:28.362Z,52.54
2018-03-11T13:40:07.626Z,52.15
2018-03-11T13:42:35.031Z,52.76
2018-03-11T13:45:14.174Z,52.13
2018-03-11T13:47:41.583Z,51.76
2018-03-11T13:50:08.994Z,51.03
2018-03-11T13:52:48.190Z,50.38
2018-03-11T13:55:15.541Z,49.26
2018-03-11T14:00:56.371Z,49.15
2018-03-11T14:03:23.774Z,51.92
2018-03-11T14:05:51.193Z,51.29
2018-03-11T14:08:18.598Z,54.10
2018-03-11T14:10:46.018Z,52.67
2018-03-11T14:13:13.409Z,51.46
2018-03-11T14:15:40.822Z,52.01
2018-03-11T14:18:08.222Z,52.91
2018-03-11T14:20:35.644Z,52.78
2018-03-11T14:23:03.045Z,53.95
2018-03-11T14:25:30.462Z,55.84
2018-03-11T14:27:57.870Z,56.00
2018-03-11T14:30:25.277Z,56.97
2018-03-11T14:32:52.674Z,58.53
2018-03-11T14:35:20.100Z,61.99
2018-03-11T14:37:47.500Z,64.87
2018-03-11T14:40:14.917Z,64.69
2018-03-11T14:42:42.331Z,67.86
2018-03-11T14:45:09.742Z,68.66
2018-03-11T14:47:37.160Z,70.95
2018-03-11T14:50:04.583Z,73.46
2018-03-11T14:52:31.985Z,72.46
2018-03-11T14:54:59.385Z,72.78
2018-03-11T14:57:26.801Z,72.84
2018-03-11T14:59:54.207Z,73.90
2018-03-11T15:02:21.613Z,73.37
2018-03-11T15:04:49.018Z,72.59
2018-03-11T15:07:16.433Z,71.35
2018-03-11T15:09:43.829Z,70.77
2018-03-11T15:12:11.591Z,69.39
2018-03-11T15:14:39.007Z,67.84
2018-03-11T15:17:06.412Z,67.89
2018-03-11T15:19:33.833Z,67.16
2018-03-11T15:22:01.258Z,67.54
2018-03-11T15:24:28.674Z,67.59
2018-03-11T15:26:56.106Z,67.92
2018-03-11T15:29:23.516Z,68.17
2018-03-11T15:31:50.930Z,68.24
2018-03-11T15:34:18.338Z,68.73
2018-03-11T15:36:45.750Z,69.24
2018-03-11T15:39:13.157Z,70.53
2018-03-11T15:41:40.568Z,70.63
2018-03-11T15:44:07.983Z,70.62
2018-03-11T15:46:35.390Z,71.42
2018-03-11T15:49:02.786Z,71.74
2018-03-11T15:51:30.242Z,72.58
2018-03-11T15:53:57.625Z,73.63
2018-03-11T15:56:25.048Z,74.74
2018-03-11T15:58:52.441Z,73.60
2018-03-11T16:01:19.883Z,73.83
2018-03-11T16:03:47.286Z,74.46
2018-03-11T16:06:14.699Z,71.92
2018-03-11T16:08:42.107Z,72.09
2018-03-11T16:11:09.514Z,77.68
2018-03-11T16:13:36.928Z,79.80
2018-03-11T16:16:04.329Z,80.59
2018-03-11T16:18:31.746Z,81.13
2018-03-11T16:20:59.149Z,81.94
2018-03-11T16:23:26.562Z,80.86
2018-03-11T16:25:53.973Z,79.50
2018-03-11T16:28:21.413Z,79.85
2018-03-11T16:30:48.814Z,77.36
2018-03-11T16:33:16.219Z,75.87
2018-03-11T16:35:43.618Z,77.96
2018-03-11T16:38:11.047Z,78.84
2018-03-11T16:40:38.447Z,81.70
2018-03-11T16:43:05.866Z,81.28
2018-03-11T16:45:33.286Z,80.23
2018-03-11T16:48:00.704Z,81.02
2018-03-11T16:50:28.105Z,82.29
2018-03-11T16:52:55.531Z,81.66
2018-03-11T16:55:22.936Z,81.27
2018-03-11T16:57:50.373Z,81.00
2018-03-11T17:00:17.775Z,81.34
2018-03-11T17:02:45.195Z,81.67
2018-03-11T17:05:12.606Z,81.45
2018-03-11T17:07:40.022Z,81.57
2018-03-11T17:10:07.438Z,82.33
2018-03-11T17:12:34.886Z,82.89
2018-03-11T17:15:02.285Z,83.65
2018-03-11T17:17:29.713Z,84.72
2018-03-11T17:19:57.126Z,84.89
2018-03-11T17:22:24.565Z,84.17
2018-03-11T17:24:52.201Z,82.20
2018-03-11T17:27:19.605Z,82.35
2018-03-11T17:29:47.025Z,80.80
2018-03-11T17:32:14.438Z,82.05
2018-03-11T17:34:41.862Z,83.94
2018-03-11T17:37:09.270Z,84.42
2018-03-11T17:39:36.687Z,84.90
2018-03-11T17:42:04.124Z,85.45
2018-03-11T17:44:31.542Z,85.55
2018-03-11T17:46:58.945Z,84.45
2018-03-11T17:49:26.381Z,83.79
2018-03-11T17:51:53.770Z,83.50
2018-03-11T17:54:21.206Z,83.03
2018-03-11T17:56:48.607Z,82.99
2018-03-11T17:59:16.031Z,82.95
2018-03-11T18:01:43.437Z,83.58
2018-03-11T18:04:10.854Z,83.96
2018-03-11T18:06:38.271Z,82.72
2018-03-11T18:09:05.689Z,81.93
2018-03-11T18:11:33.100Z,82.88
2018-03-11T18:14:00.513Z,82.22
2018-03-11T18:16:27.918Z,81.62
2018-03-11T18:18:55.338Z,81.40
2018-03-11T18:21:22.813Z,81.27
2018-03-11T18:23:50.224Z,81.41
2018-03-11T18:26:17.637Z,81.79
2018-03-11T18:28:45.051Z,82.09
2018-03-11T18:31:12.560Z,81.22
2018-03-11T18:33:39.946Z,81.45
2018-03-11T18:36:07.373Z,81.06
2018-03-11T18:38:34.831Z,81.05
2018-03-11T18:41:02.254Z,80.89
2018-03-11T18:43:29.679Z,80.11
2018-03-11T18:45:57.091Z,79.77
2018-03-11T18:48:24.508Z,79.89
2018-03-11T18:50:51.989Z,79.32
2018-03-11T18:53:19.384Z,79.01
2018-03-11T18:55:46.799Z,78.74
2018-03-11T18:58:14.288Z,79.66
2018-03-11T19:00:41.693Z,79.37
2018-03-11T19:03:09.094Z,79.22
2018-03-11T19:05:36.494Z,79.40
2018-03-11T19:08:03.915Z,79.44
2018-03-11T19:10:31.334Z,79.71
2018-03-11T19:12:58.734Z,79.66
2018-03-11T19:15:26.145Z,79.75
2018-03-11T19:17:53.561Z,80.59
2018-03-11T19:20:20.998Z,80.38
2018-03-11T19:22:48.408Z,80.66
2018-03-11T19:25:15.813Z,80.59
2018-03-11T19:27:43.215Z,81.18
2018-03-11T19:30:10.622Z,82.12
2018-03-11T19:32:38.019Z,82.73
2018-03-11T19:35:05.435Z,82.45
2018-03-11T19:37:32.849Z,81.57
2018-03-11T19:40:00.347Z,81.12
2018-03-11T19:42:27.750Z,80.61
2018-03-11T19:44:55.190Z,80.21
2018-03-11T19:47:22.599Z,80.00
2018-03-11T19:49:50.012Z,80.32
2018-03-11T19:52:17.442Z,80.88
2018-03-11T19:54:44.847Z,80.75
2018-03-11T19:57:12.266Z,80.88
2018-03-11T19:59:39.673Z,80.69
2018-03-11T20:02:07.126Z,80.72
2018-03-11T20:04:34.525Z,80.74
2018-03-11T20:07:01.935Z,81.08
2018-03-11T20:09:29.357Z,81.21
2018-03-11T20:11:56.785Z,81.88
2018-03-11T20:14:24.185Z,81.89
2018-03-11T20:16:51.595Z,81.90
2018-03-11T20:19:18.996Z,81.80
2018-03-11T20:21:46.429Z,81.88
2018-03-11T20:24:13.838Z,83.33
2018-03-11T20:26:41.248Z,84.11
2018-03-11T20:29:09.546Z,83.45
2018-03-11T20:31:36.983Z,82.73
2018-03-11T20:34:04.401Z,82.84
2018-03-11T20:36:31.814Z,83.34
2018-03-11T20:38:59.206Z,83.77
2018-03-11T20:41:26.621Z,85.55
2018-03-11T20:43:54.039Z,86.19
2018-03-11T20:46:21.445Z,86.17
2018-03-11T20:48:48.837Z,87.02
2018-03-11T20:51:16.324Z,87.43
2018-03-11T20:53:43.802Z,88.21
2018-03-11T20:56:11.217Z,88.48
2018-03-11T20:58:38.641Z,88.49
2018-03-11T21:01:06.054Z,88.82
2018-03-11T21:03:33.517Z,88.04
2018-03-11T21:06:00.931Z,88.32
2018-03-11T21:08:28.358Z,88.31
2018-03-11T21:10:55.758Z,88.28
2018-03-11T21:13:23.178Z,88.32
2018-03-11T21:15:50.635Z,88.26
2018-03-11T21:18:18.070Z,88.26
2018-03-11T21:20:45.511Z,88.28
2018-03-11T21:23:12.977Z,88.09
2018-03-11T21:25:40.390Z,87.84
2018-03-11T21:28:07.802Z,87.35
2018-03-11T21:30:35.217Z,87.06
2018-03-11T21:33:02.629Z,87.37
2018-03-11T21:35:30.059Z,87.19
2018-03-11T21:37:57.491Z,87.20
2018-03-11T21:40:24.954Z,86.84
2018-03-11T21:42:52.370Z,86.92
2018-03-11T21:45:19.780Z,86.06
2018-03-11T21:47:47.210Z,85.94
2018-03-11T21:50:14.688Z,87.05
2018-03-11T21:52:42.160Z,88.05
2018-03-11T21:55:09.574Z,88.85
2018-03-11T21:57:37.045Z,88.86
2018-03-11T22:02:41.144Z,89.26
2018-03-11T22:05:08.597Z,89.80
2018-03-11T22:07:36.142Z,90.25
2018-03-11T22:10:03.870Z,90.04
2018-03-11T22:12:31.584Z,89.67
2018-03-11T22:14:59.107Z,89.45
2018-03-11T22:17:26.574Z,90.42
2018-03-11T22:19:54.152Z,90.82
2018-03-11T22:22:21.566Z,90.78
2018-03-11T22:24:49.172Z,90.68
2018-03-11T22:27:16.602Z,90.45
2018-03-11T22:29:44.139Z,89.66
2018-03-11T22:32:11.873Z,89.30
2018-03-11T22:34:39.384Z,89.07
2018-03-11T22:37:06.774Z,89.46
2018-03-11T22:39:34.297Z,89.10
2018-03-11T22:42:01.784Z,89.26
2018-03-11T22:44:29.446Z,89.53
2018-03-11T22:46:56.854Z,89.41
2018-03-11T22:49:24.366Z,88.89
2018-03-11T22:51:51.807Z,88.24
2018-03-11T22:54:19.243Z,87.65
2018-03-11T22:56:46.680Z,87.35
2018-03-11T22:59:14.119Z,87.78
2018-03-11T23:01:41.547Z,87.88
2018-03-11T23:04:09.007Z,87.64
2018-03-11T23:06:36.437Z,88.60
2018-03-11T23:09:03.878Z,89.75
2018-03-11T23:11:31.363Z,89.75
2018-03-11T23:13:58.783Z,89.60
2018-03-11T23:16:26.252Z,89.23
2018-03-11T23:19:05.397Z,89.03
2018-03-11T23:21:32.842Z,87.42
2018-03-11T23:24:01.136Z,86.32
2018-03-11T23:26:28.676Z,86.49
2018-03-11T23:28:58.595Z,87.57
2018-03-11T23:31:26.043Z,87.24
2018-03-11T23:33:53.467Z,87.65
2018-03-11T23:36:20.897Z,87.70
2018-03-11T23:38:48.340Z,87.72
2018-03-11T23:41:15.771Z,88.68
2018-03-11T23:43:43.187Z,89.99
2018-03-11T23:46:10.697Z,90.68
2018-03-11T23:48:38.119Z,91.00
2018-03-11T23:51:05.556Z,91.29
2018-03-11T23:53:32.980Z,91.31
2018-03-11T23:56:00.407Z,91.00
2018-03-11T23:58:28.392Z,90.49
